createdAt,value
2018-06-18T05:15:19.194Z,22.1
2018-06-18T05:16:09.505Z,22.1
2018-06-18T05:16:59.301Z,22.1
2018-06-18T05:17:49.101Z,22.1
2018-06-18T05:18:38.888Z,22.1
2018-06-18T05:19:29.788Z,22.1
2018-06-18T05:20:19.753Z,22.1
2018-06-18T05:21:09.699Z,22.1
2018-06-18T05:21:59.722Z,22.1
2018-06-18T05:22:49.849Z,22.1
2018-06-18T05:23:39.305Z,22.1
2018-06-18T05:24:29.634Z,22.1
2018-06-18T05:25:19.719Z,22.1
2018-06-18T05:26:09.472Z,22.1
2018-06-18T05:26:59.310Z,22.1
2018-06-18T05:27:49.635Z,22.1
2018-06-18T05:28:40.672Z,22.1
2018-06-18T05:29:30.038Z,22.1
2018-06-18T05:30:19.545Z,22.1
2018-06-18T05:31:09.605Z,22.1
2018-06-18T05:31:59.984Z,22.1
2018-06-18T05:32:50.007Z,22.1
2018-06-18T05:33:40.319Z,22.1
2018-06-18T05:34:30.148Z,22.1
2018-06-18T05:35:20.927Z,22.1
2018-06-18T05:36:10.333Z,22.2
2018-06-18T05:36:59.164Z,22.2
2018-06-18T05:37:50.092Z,22.2
2018-06-18T05:38:41.219Z,22.2
2018-06-18T05:39:31.085Z,22.2
2018-06-18T05:40:20.912Z,22.2
2018-06-18T05:41:10.977Z,22.2
2018-06-18T05:42:01.481Z,22.2
2018-06-18T05:42:50.759Z,22.2
2018-06-18T05:43:41.148Z,22.2
2018-06-18T05:44:31.129Z,22.3
2018-06-18T05:45:20.900Z,22.2
2018-06-18T05:46:11.816Z,22.3
2018-06-18T05:47:00.865Z,22.3
2018-06-18T05:47:50.629Z,22.3
2018-06-18T05:48:41.248Z,22.3
2018-06-18T05:49:31.339Z,22.3
2018-06-18T05:50:21.725Z,22.3
2018-06-18T05:51:11.661Z,22.3
2018-06-18T05:52:01.179Z,22.3
2018-06-18T05:52:52.068Z,22.3
2018-06-18T05:53:42.137Z,22.3
2018-06-18T05:54:31.901Z,22.3
2018-06-18T05:55:21.738Z,22.3
2018-06-18T05:56:12.270Z,22.3
2018-06-18T05:57:02.114Z,22.3
2018-06-18T05:57:52.411Z,22.3
2018-06-18T05:58:42.606Z,22.3
2018-06-18T05:59:32.277Z,22.3
2018-06-18T06:00:21.822Z,22.3
2018-06-18T06:01:12.686Z,22.3
2018-06-18T06:02:02.778Z,22.3
2018-06-18T06:02:52.040Z,22.3
2018-06-18T06:03:42.590Z,22.3
2018-06-18T06:04:32.720Z,22.3
2018-06-18T06:05:23.317Z,22.3
2018-06-18T06:06:13.189Z,22.3
2018-06-18T06:07:03.142Z,22.3
2018-06-18T06:07:53.132Z,22.3
2018-06-18T06:08:43.023Z,22.3
2018-06-18T06:09:33.432Z,22.3
2018-06-18T06:10:23.352Z,22.3
2018-06-18T06:11:12.628Z,22.3
2018-06-18T06:12:03.809Z,22.3
2018-06-18T06:12:53.337Z,22.3
2018-06-18T06:13:43.620Z,22.3
2018-06-18T06:14:33.262Z,22.4
2018-06-18T06:15:23.268Z,22.3
2018-06-18T06:16:13.605Z,22.3
2018-06-18T06:17:03.249Z,22.3
2018-06-18T06:17:53.467Z,22.3
2018-06-18T06:18:42.990Z,22.3
2018-06-18T06:19:33.001Z,22.3
2018-06-18T06:20:24.430Z,22.3
2018-06-18T06:21:13.691Z,22.3
2018-06-18T06:22:03.557Z,22.3
2018-06-18T06:22:54.103Z,22.4
2018-06-18T06:23:43.894Z,22.3
2018-06-18T06:24:34.165Z,22.3
2018-06-18T06:25:24.798Z,22.3
2018-06-18T06:26:13.790Z,22.3
2018-06-18T06:27:04.892Z,22.3
2018-06-18T06:27:54.937Z,22.4
2018-06-18T06:28:44.743Z,22.4
2018-06-18T06:29:35.105Z,22.3
2018-06-18T06:30:24.924Z,22.3
2018-06-18T06:31:15.015Z,22.3
2018-06-18T06:32:05.280Z,22.4
2018-06-18T06:32:55.100Z,22.3
2018-06-18T06:33:45.387Z,22.3
2018-06-18T06:34:35.477Z,22.4
2018-06-18T06:35:25.002Z,22.4
2018-06-18T06:36:15.346Z,22.4
2018-06-18T06:37:04.546Z,22.4
2018-06-18T06:37:55.811Z,22.4
2018-06-18T06:38:45.768Z,22.4
2018-06-18T06:39:35.873Z,22.3
2018-06-18T06:40:25.615Z,22.4
2018-06-18T06:41:15.735Z,22.4
2018-06-18T06:42:06.094Z,22.4
2018-06-18T06:42:56.115Z,22.4
2018-06-18T06:43:45.889Z,22.4
2018-06-18T06:44:36.228Z,22.4
2018-06-18T06:45:26.007Z,22.4
2018-06-18T06:46:16.086Z,22.4
2018-06-18T06:47:06.138Z,22.4
2018-06-18T06:47:56.217Z,22.4
2018-06-18T06:48:46.208Z,22.4
2018-06-18T06:49:36.647Z,22.4
2018-06-18T06:50:26.742Z,22.4
2018-06-18T06:51:15.896Z,22.4
2018-06-18T06:52:05.984Z,22.4
2018-06-18T06:52:56.839Z,22.4
2018-06-18T06:53:46.070Z,22.4
2018-06-18T06:54:36.570Z,22.4
2018-06-18T06:55:27.184Z,22.4
2018-06-18T06:56:16.323Z,22.4
2018-06-18T06:57:07.209Z,22.4
2018-06-18T06:57:56.978Z,22.4
2018-06-18T06:58:46.839Z,22.4
2018-06-18T06:59:37.379Z,22.4
2018-06-18T07:00:26.616Z,22.4
2018-06-18T07:01:18.063Z,22.4
2018-06-18T07:02:06.778Z,22.4
2018-06-18T07:02:56.499Z,22.4
2018-06-18T07:03:47.124Z,22.4
2018-06-18T07:04:37.494Z,22.4
2018-06-18T07:05:27.825Z,22.4
2018-06-18T07:06:16.757Z,22.4
2018-06-18T07:07:07.982Z,22.4
2018-06-18T07:07:57.003Z,22.4
2018-06-18T07:08:47.548Z,22.4
2018-06-18T07:09:37.574Z,22.4
2018-06-18T07:10:28.229Z,22.4
2018-06-18T07:11:17.208Z,22.4
2018-06-18T07:12:08.326Z,22.4
2018-06-18T07:12:58.157Z,22.4
2018-06-18T07:13:47.924Z,22.4
2018-06-18T07:14:37.149Z,22.4
2018-06-18T07:15:28.620Z,22.4
2018-06-18T07:16:18.411Z,22.4
2018-06-18T07:17:08.746Z,22.4
2018-06-18T07:17:58.291Z,22.4
2018-06-18T07:18:48.566Z,22.4
2018-06-18T07:19:38.153Z,22.4
2018-06-18T07:20:28.004Z,22.4
2018-06-18T07:21:18.770Z,22.4
2018-06-18T07:22:08.858Z,22.4
2018-06-18T07:22:58.440Z,22.4
2018-06-18T07:23:47.870Z,22.4
2018-06-18T07:24:38.618Z,22.4
2018-06-18T07:25:28.886Z,22.4
2018-06-18T07:26:18.691Z,22.4
2018-06-18T07:27:08.284Z,22.4
2018-06-18T07:27:58.240Z,22.5
2018-06-18T07:28:48.518Z,22.5
2018-06-18T07:29:38.820Z,22.4
2018-06-18T07:30:31.047Z,22.5
2018-06-18T07:31:19.784Z,22.5
2018-06-18T07:32:09.918Z,22.5
2018-06-18T07:32:59.083Z,22.5
2018-06-18T07:33:50.046Z,22.5
2018-06-18T07:34:39.764Z,22.5
2018-06-18T07:35:29.891Z,22.5
2018-06-18T07:36:19.135Z,22.5
2018-06-18T07:37:09.178Z,22.5
2018-06-18T07:38:00.390Z,22.4
2018-06-18T07:38:50.123Z,22.5
2018-06-18T07:39:40.157Z,22.4
2018-06-18T07:40:29.718Z,22.5
2018-06-18T07:41:20.078Z,22.5
2018-06-18T07:42:09.814Z,22.5
2018-06-18T07:43:00.391Z,22.5
2018-06-18T07:43:50.740Z,22.5
2018-06-18T07:44:40.267Z,22.5
2018-06-18T07:45:30.945Z,22.5
2018-06-18T07:46:20.652Z,22.5
2018-06-18T07:47:10.202Z,22.5
2018-06-18T07:48:01.151Z,22.5
2018-06-18T07:48:49.794Z,22.5
2018-06-18T07:49:40.949Z,22.5
2018-06-18T07:50:31.004Z,22.5
2018-06-18T07:51:20.531Z,22.5
2018-06-18T07:52:11.435Z,22.5
2018-06-18T07:53:01.194Z,22.5
2018-06-18T07:53:51.289Z,22.5
2018-06-18T07:54:41.037Z,22.5
2018-06-18T07:55:31.092Z,22.5
2018-06-18T07:56:20.864Z,22.5
2018-06-18T07:57:11.219Z,22.5
2018-06-18T07:58:01.284Z,22.5
2018-06-18T07:58:51.643Z,22.5
2018-06-18T07:59:41.213Z,22.5
2018-06-18T08:00:31.157Z,22.5
2018-06-18T08:01:22.057Z,22.5
2018-06-18T08:02:12.135Z,22.5
2018-06-18T08:03:02.190Z,22.5
2018-06-18T08:03:51.131Z,22.5
2018-06-18T08:04:41.833Z,22.5
2018-06-18T08:05:32.395Z,22.5
2018-06-18T08:06:22.142Z,22.6
2018-06-18T08:07:12.497Z,22.6
2018-06-18T08:08:02.126Z,22.5
2018-06-18T08:08:52.654Z,22.5
2018-06-18T08:09:43.364Z,22.5
2018-06-18T08:10:32.289Z,22.5
2018-06-18T08:11:22.606Z,22.5
2018-06-18T08:12:12.658Z,22.5
2018-06-18T08:13:02.998Z,22.5
2018-06-18T08:13:53.057Z,22.6
2018-06-18T08:14:42.801Z,22.5
2018-06-18T08:15:32.914Z,22.5
2018-06-18T08:16:21.844Z,22.6
2018-06-18T08:17:13.007Z,22.6
2018-06-18T08:18:02.833Z,22.5
2018-06-18T08:18:53.141Z,22.5
2018-06-18T08:19:42.679Z,22.5
2018-06-18T08:20:32.846Z,22.6
2018-06-18T08:21:23.614Z,22.6
2018-06-18T08:22:13.112Z,22.6
2018-06-18T08:23:03.847Z,22.5
2018-06-18T08:23:54.453Z,22.6
2018-06-18T08:24:43.671Z,22.5
2018-06-18T08:25:32.344Z,22.6
2018-06-18T08:26:24.026Z,22.6
2018-06-18T08:27:12.966Z,22.6
2018-06-18T08:28:03.571Z,22.6
2018-06-18T08:28:53.140Z,22.6
2018-06-18T08:29:43.706Z,22.6
2018-06-18T08:30:34.080Z,22.6
2018-06-18T08:31:24.403Z,22.6
2018-06-18T08:32:13.645Z,22.6
2018-06-18T08:33:03.450Z,22.6
2018-06-18T08:33:54.599Z,22.6
2018-06-18T08:34:44.706Z,22.5
2018-06-18T08:35:34.159Z,22.6
2018-06-18T08:36:25.160Z,22.6
2018-06-18T08:37:13.714Z,22.6
2018-06-18T08:38:04.624Z,22.6
2018-06-18T08:38:54.997Z,22.6
2018-06-18T08:39:44.205Z,22.6
2018-06-18T08:40:34.347Z,22.6
2018-06-18T08:41:24.621Z,22.6
2018-06-18T08:42:14.433Z,22.6
2018-06-18T08:43:05.034Z,22.6
2018-06-18T08:43:55.378Z,22.6
2018-06-18T08:44:45.131Z,22.6
2018-06-18T08:45:35.422Z,22.6
2018-06-18T08:46:25.010Z,22.6
2018-06-18T08:47:15.550Z,22.6
2018-06-18T08:48:04.815Z,22.6
2018-06-18T08:48:55.798Z,22.6
2018-06-18T08:49:45.520Z,22.6
2018-06-18T08:50:36.304Z,22.6
2018-06-18T08:51:25.147Z,22.6
2018-06-18T08:52:15.835Z,22.6
2018-06-18T08:53:04.968Z,22.6
2018-06-18T08:53:56.138Z,22.6
2018-06-18T08:54:45.363Z,22.6
2018-06-18T08:55:36.078Z,22.6
2018-06-18T08:56:26.052Z,22.6
2018-06-18T08:57:16.074Z,22.6
2018-06-18T08:58:05.750Z,22.6
2018-06-18T08:58:55.928Z,22.6
2018-06-18T08:59:45.738Z,22.6
2018-06-18T09:00:36.353Z,22.6
2018-06-18T09:01:26.398Z,22.6
2018-06-18T09:02:16.762Z,22.6
2018-06-18T09:03:06.674Z,22.6
2018-06-18T09:03:56.881Z,22.6
2018-06-18T09:04:46.205Z,22.6
2018-06-18T09:05:37.020Z,22.6
2018-06-18T09:06:25.772Z,22.6
2018-06-18T09:07:17.188Z,22.6
2018-06-18T09:08:05.317Z,22.6
2018-06-18T09:08:56.779Z,22.6
2018-06-18T09:09:46.761Z,22.6
2018-06-18T09:10:36.930Z,22.6
2018-06-18T09:11:26.685Z,22.6
2018-06-18T09:12:16.714Z,22.6
2018-06-18T09:13:06.461Z,22.6
2018-06-18T09:13:56.927Z,22.6
2018-06-18T09:14:47.707Z,22.6
2018-06-18T09:15:36.379Z,22.6
2018-06-18T09:16:27.047Z,22.6
2018-06-18T09:17:17.334Z,22.6
2018-06-18T09:18:07.151Z,22.6
2018-06-18T09:18:56.381Z,22.6
2018-06-18T09:19:47.465Z,22.6
2018-06-18T09:20:37.674Z,22.6
2018-06-18T09:21:27.478Z,22.6
2018-06-18T09:22:17.730Z,22.6
2018-06-18T09:23:07.800Z,22.6
2018-06-18T09:23:58.170Z,22.6
2018-06-18T09:24:47.946Z,22.6
2018-06-18T09:25:37.594Z,22.6
2018-06-18T09:26:27.549Z,22.6
2018-06-18T09:27:17.921Z,22.6
2018-06-18T09:28:07.906Z,22.6
2018-06-18T09:28:58.540Z,22.6
2018-06-18T09:29:48.162Z,22.6
2018-06-18T09:30:38.626Z,22.6
2018-06-18T09:31:27.890Z,22.6
2018-06-18T09:32:22.395Z,22.6
2018-06-18T09:33:09.107Z,22.6
2018-06-18T09:33:58.332Z,22.6
2018-06-18T09:34:49.250Z,22.6
2018-06-18T09:35:38.771Z,22.6
2018-06-18T09:36:29.165Z,22.6
2018-06-18T09:37:18.743Z,22.6
2018-06-18T09:38:09.313Z,22.6
2018-06-18T09:38:59.617Z,22.6
2018-06-18T09:39:48.622Z,22.6
2018-06-18T09:40:38.897Z,22.6
2018-06-18T09:41:29.255Z,22.6
2018-06-18T09:42:19.531Z,22.6
2018-06-18T09:43:09.059Z,22.6
2018-06-18T09:43:59.688Z,22.6
2018-06-18T09:44:49.268Z,22.6
2018-06-18T09:45:40.080Z,22.6
2018-06-18T09:46:29.647Z,22.6
2018-06-18T09:47:19.939Z,22.6
2018-06-18T09:48:10.247Z,22.6
2018-06-18T09:48:59.820Z,22.6
2018-06-18T09:49:49.137Z,22.6
2018-06-18T09:50:40.208Z,22.6
2018-06-18T09:51:30.523Z,22.6
2018-06-18T09:52:20.330Z,22.6
2018-06-18T09:53:10.098Z,22.6
2018-06-18T09:54:00.507Z,22.6
2018-06-18T09:54:50.496Z,22.6
2018-06-18T09:55:41.219Z,22.6
2018-06-18T09:56:30.907Z,22.6
2018-06-18T09:57:20.426Z,22.6
2018-06-18T09:58:10.259Z,22.6
2018-06-18T09:59:00.056Z,22.6
2018-06-18T09:59:50.881Z,22.6
2018-06-18T10:00:40.963Z,22.6
2018-06-18T10:01:30.699Z,22.6
2018-06-18T10:02:21.658Z,22.6
2018-06-18T10:03:11.230Z,22.6
2018-06-18T10:04:00.666Z,22.6
2018-06-18T10:04:50.730Z,22.6
2018-06-18T10:05:41.054Z,22.6
2018-06-18T10:06:31.638Z,22.6
2018-06-18T10:07:21.188Z,22.6
2018-06-18T10:08:11.661Z,22.6
2018-06-18T10:09:01.623Z,22.6
2018-06-18T10:09:51.682Z,22.6
2018-06-18T10:10:41.644Z,22.6
2018-06-18T10:11:31.233Z,22.6
2018-06-18T10:12:21.561Z,22.6
2018-06-18T10:13:11.665Z,22.6
2018-06-18T10:14:02.316Z,22.6
2018-06-18T10:14:52.053Z,22.6
2018-06-18T10:15:42.115Z,22.6
2018-06-18T10:16:31.398Z,22.6
2018-06-18T10:17:21.968Z,22.6
2018-06-18T10:18:11.745Z,22.6
2018-06-18T10:19:02.362Z,22.6
2018-06-18T10:19:51.657Z,22.6
2018-06-18T10:20:42.226Z,22.6
2018-06-18T10:21:32.002Z,22.6
2018-06-18T10:22:22.625Z,22.6
2018-06-18T10:23:12.715Z,22.6
2018-06-18T10:24:02.830Z,22.6
2018-06-18T10:24:51.785Z,22.6
2018-06-18T10:25:42.075Z,22.6
2018-06-18T10:26:32.411Z,22.6
2018-06-18T10:27:22.545Z,22.6
2018-06-18T10:28:12.505Z,22.6
2018-06-18T10:29:02.594Z,22.6
2018-06-18T10:29:52.673Z,22.6
2018-06-18T10:30:42.950Z,22.6
2018-06-18T10:31:33.571Z,22.6
2018-06-18T10:32:23.366Z,22.6
2018-06-18T10:33:12.950Z,22.6
2018-06-18T10:34:03.009Z,22.6
2018-06-18T10:34:53.589Z,22.6
2018-06-18T10:35:43.684Z,22.6
2018-06-18T10:36:33.433Z,22.6
2018-06-18T10:37:23.488Z,22.6
2018-06-18T10:38:14.093Z,22.6
2018-06-18T10:39:03.642Z,22.6
2018-06-18T10:39:54.240Z,22.6
2018-06-18T10:40:44.019Z,22.6
2018-06-18T10:41:35.285Z,22.6
2018-06-18T10:42:24.431Z,22.6
2018-06-18T10:43:13.958Z,22.6
2018-06-18T10:44:04.290Z,22.6
2018-06-18T10:44:54.356Z,22.6
2018-06-18T10:45:44.748Z,22.6
2018-06-18T10:46:34.725Z,22.6
2018-06-18T10:47:24.800Z,22.6
2018-06-18T10:48:14.052Z,22.6
2018-06-18T10:49:05.334Z,22.6
2018-06-18T10:49:54.998Z,22.6
2018-06-18T10:50:44.826Z,22.6
2018-06-18T10:51:35.139Z,22.6
2018-06-18T10:52:24.921Z,22.6
2018-06-18T10:53:13.860Z,22.6
2018-06-18T10:54:05.076Z,22.6
2018-06-18T10:54:54.803Z,22.6
2018-06-18T10:55:45.172Z,22.6
2018-06-18T10:56:35.292Z,22.6
2018-06-18T10:57:25.045Z,22.6
2018-06-18T10:58:15.417Z,22.6
2018-06-18T10:59:05.189Z,22.6
2018-06-18T10:59:55.542Z,22.6
2018-06-18T11:00:44.541Z,22.6
2018-06-18T11:01:35.116Z,22.6
2018-06-18T11:02:24.644Z,22.6
2018-06-18T11:03:15.500Z,22.6
2018-06-18T11:04:05.049Z,22.6
2018-06-18T11:04:55.603Z,22.6
2018-06-18T11:05:45.948Z,22.6
2018-06-18T11:06:35.818Z,22.6
2018-06-18T11:07:26.072Z,22.6
2018-06-18T11:08:15.084Z,22.6
2018-06-18T11:09:06.239Z,22.6
2018-06-18T11:09:55.847Z,22.6
2018-06-18T11:10:46.044Z,22.6
2018-06-18T11:11:36.714Z,22.6
2018-06-18T11:12:26.450Z,22.7
2018-06-18T11:13:16.243Z,22.6
2018-06-18T11:14:06.601Z,22.6
2018-06-18T11:14:56.414Z,22.6
2018-06-18T11:15:46.307Z,22.6
2018-06-18T11:16:40.856Z,22.7
2018-06-18T11:17:32.536Z,22.6
2018-06-18T11:18:16.599Z,22.6
2018-06-18T11:19:06.981Z,22.6
2018-06-18T11:19:56.741Z,22.7
2018-06-18T11:20:47.358Z,22.6
2018-06-18T11:21:37.160Z,22.7
2018-06-18T11:22:26.682Z,22.7
2018-06-18T11:23:16.826Z,22.6
2018-06-18T11:24:06.671Z,22.6
2018-06-18T11:24:57.426Z,22.6
2018-06-18T11:25:46.415Z,22.6
2018-06-18T11:26:38.989Z,22.7
2018-06-18T11:27:27.791Z,22.6
2018-06-18T11:28:19.433Z,22.7
2018-06-18T11:29:07.474Z,22.7
2018-06-18T11:29:57.947Z,22.7
2018-06-18T11:30:46.768Z,22.7
2018-06-18T11:31:37.927Z,22.7
2018-06-18T11:32:28.000Z,22.6
2018-06-18T11:33:18.312Z,22.7
2018-06-18T11:34:07.817Z,22.7
2018-06-18T11:34:58.799Z,22.7
2018-06-18T11:35:48.703Z,22.7
2018-06-18T11:36:38.000Z,22.7
2018-06-18T11:37:28.379Z,22.7
2018-06-18T11:38:18.164Z,22.7
2018-06-18T11:39:07.906Z,22.7
2018-06-18T11:39:58.535Z,22.7
2018-06-18T11:40:49.781Z,22.6
2018-06-18T11:41:39.352Z,22.7
2018-06-18T11:42:29.109Z,22.7
2018-06-18T11:43:19.051Z,22.7
2018-06-18T11:44:08.872Z,22.7
2018-06-18T11:44:58.715Z,22.6
2018-06-18T11:45:50.003Z,22.7
2018-06-18T11:46:38.863Z,22.7
2018-06-18T11:47:29.435Z,22.7
2018-06-18T11:48:20.836Z,22.7
2018-06-18T11:49:09.252Z,22.7
2018-06-18T11:49:59.137Z,22.6
2018-06-18T11:50:49.373Z,22.7
2018-06-18T11:51:39.174Z,22.7
2018-06-18T11:52:29.866Z,22.7
2018-06-18T11:53:19.575Z,22.7
2018-06-18T11:54:09.390Z,22.7
2018-06-18T11:55:00.072Z,22.7
2018-06-18T11:55:50.115Z,22.7
2018-06-18T11:56:39.019Z,22.7
2018-06-18T11:57:30.176Z,22.7
2018-06-18T11:58:20.782Z,22.6
2018-06-18T11:59:10.340Z,22.7
2018-06-18T11:59:59.519Z,22.7
2018-06-18T12:00:49.923Z,22.7
2018-06-18T12:01:40.575Z,22.7
2018-06-18T12:02:30.560Z,22.7
2018-06-18T12:03:19.878Z,22.7
2018-06-18T12:04:09.843Z,22.7
2018-06-18T12:05:00.513Z,22.6
2018-06-18T12:05:49.992Z,22.7
2018-06-18T12:06:39.773Z,22.7
2018-06-18T12:07:30.806Z,22.7
2018-06-18T12:08:20.978Z,22.7
2018-06-18T12:09:10.801Z,22.7
2018-06-18T12:10:02.336Z,22.7
2018-06-18T12:10:50.894Z,22.7
2018-06-18T12:11:40.485Z,22.7
2018-06-18T12:12:31.076Z,22.7
2018-06-18T12:13:20.838Z,22.7
2018-06-18T12:14:11.464Z,22.7
2018-06-18T12:15:01.550Z,22.7
2018-06-18T12:15:51.291Z,22.7
2018-06-18T12:16:40.930Z,22.7
2018-06-18T12:17:31.419Z,22.7
2018-06-18T12:18:35.885Z,22.7
2018-06-18T12:19:11.341Z,22.7
2018-06-18T12:20:01.347Z,22.7
2018-06-18T12:20:51.689Z,22.7
2018-06-18T12:21:41.275Z,22.7
2018-06-18T12:22:31.299Z,22.7
2018-06-18T12:23:21.316Z,22.7
2018-06-18T12:24:11.937Z,22.7
2018-06-18T12:25:02.047Z,22.7
2018-06-18T12:25:51.875Z,22.7
2018-06-18T12:26:41.902Z,22.7
2018-06-18T12:27:32.187Z,22.7
2018-06-18T12:28:21.897Z,22.7
2018-06-18T12:29:12.592Z,22.7
2018-06-18T12:30:01.867Z,22.7
2018-06-18T12:30:51.899Z,22.7
2018-06-18T12:31:42.289Z,22.7
2018-06-18T12:32:31.817Z,22.7
2018-06-18T12:33:22.909Z,22.7
2018-06-18T12:34:12.711Z,22.7
2018-06-18T12:35:03.049Z,22.7
2018-06-18T12:35:52.620Z,22.7
2018-06-18T12:36:42.621Z,22.7
2018-06-18T12:37:32.709Z,22.7
2018-06-18T12:38:23.312Z,22.7
2018-06-18T12:39:12.141Z,22.7
2018-06-18T12:40:03.466Z,22.7
2018-06-18T12:40:53.462Z,22.7
2018-06-18T12:41:42.708Z,22.7
2018-06-18T12:42:33.317Z,22.7
2018-06-18T12:43:23.632Z,22.7
2018-06-18T12:44:13.180Z,22.7
2018-06-18T12:45:03.579Z,22.7
2018-06-18T12:45:54.146Z,22.7
2018-06-18T12:46:44.991Z,22.7
2018-06-18T12:47:33.142Z,22.7
2018-06-18T12:48:23.758Z,22.7
2018-06-18T12:49:14.141Z,22.7
2018-06-18T12:50:03.692Z,22.7
2018-06-18T12:50:53.971Z,22.7
2018-06-18T12:51:44.323Z,22.7
2018-06-18T12:52:34.390Z,22.7
2018-06-18T12:53:24.932Z,22.7
2018-06-18T12:54:14.492Z,22.7
2018-06-18T12:55:04.291Z,22.7
2018-06-18T12:55:54.615Z,22.7
2018-06-18T12:56:43.947Z,22.7
2018-06-18T12:57:34.758Z,22.7
2018-06-18T12:58:24.015Z,22.7
2018-06-18T12:59:14.103Z,22.7
2018-06-18T13:00:04.237Z,22.7
2018-06-18T13:00:54.502Z,22.7
2018-06-18T13:01:44.539Z,22.7
2018-06-18T13:02:34.644Z,22.7
2018-06-18T13:03:25.929Z,22.7
2018-06-18T13:04:15.032Z,22.7
2018-06-18T13:05:04.855Z,22.7
2018-06-18T13:05:55.154Z,22.7
2018-06-18T13:06:44.772Z,22.7
2018-06-18T13:07:35.289Z,22.7
2018-06-18T13:08:23.914Z,22.7
2018-06-18T13:09:15.173Z,22.7
2018-06-18T13:10:05.987Z,22.8
2018-06-18T13:10:54.980Z,22.8
2018-06-18T13:11:45.648Z,22.8
2018-06-18T13:12:34.558Z,22.8
2018-06-18T13:13:25.786Z,22.8
2018-06-18T13:14:16.090Z,22.7
2018-06-18T13:15:05.581Z,22.8
2018-06-18T13:15:56.201Z,22.8
2018-06-18T13:16:45.753Z,22.8
2018-06-18T13:17:36.147Z,22.8
2018-06-18T13:18:40.497Z,22.8
2018-06-18T13:19:15.683Z,22.8
2018-06-18T13:20:05.746Z,22.8
2018-06-18T13:20:56.021Z,22.8
2018-06-18T13:21:46.845Z,22.8
2018-06-18T13:22:36.158Z,22.8
2018-06-18T13:23:26.817Z,22.8
2018-06-18T13:24:16.887Z,22.8
2018-06-18T13:25:06.982Z,22.8
2018-06-18T13:25:56.686Z,22.8
2018-06-18T13:26:46.460Z,22.8
2018-06-18T13:27:36.193Z,22.8
2018-06-18T13:28:27.206Z,22.8
2018-06-18T13:29:17.218Z,22.8
2018-06-18T13:30:05.927Z,22.8
2018-06-18T13:30:57.403Z,22.8
2018-06-18T13:31:47.180Z,22.8
2018-06-18T13:32:36.355Z,22.8
2018-06-18T13:33:26.771Z,22.8
2018-06-18T13:34:16.302Z,22.8
2018-06-18T13:35:07.104Z,22.8
2018-06-18T13:35:57.546Z,22.8
2018-06-18T13:36:46.790Z,22.8
2018-06-18T13:37:37.080Z,22.8
2018-06-18T13:38:27.390Z,22.8
2018-06-18T13:39:17.434Z,22.8
2018-06-18T13:40:07.842Z,22.8
2018-06-18T13:40:57.429Z,22.8
2018-06-18T13:41:47.479Z,22.8
2018-06-18T13:42:37.736Z,22.8
2018-06-18T13:43:28.052Z,22.8
2018-06-18T13:44:18.176Z,22.8
2018-06-18T13:45:07.745Z,22.8
2018-06-18T13:45:57.986Z,22.8
2018-06-18T13:46:48.044Z,22.8
2018-06-18T13:47:37.899Z,22.8
2018-06-18T13:48:27.914Z,22.8
2018-06-18T13:49:17.956Z,22.8
2018-06-18T13:50:08.315Z,22.8
2018-06-18T13:50:58.378Z,22.8
2018-06-18T13:51:46.806Z,22.8
2018-06-18T13:52:39.643Z,22.8
2018-06-18T13:53:28.844Z,22.8
2018-06-18T13:54:17.809Z,22.8
2018-06-18T13:55:09.255Z,22.8
2018-06-18T13:55:58.736Z,22.8
2018-06-18T13:56:48.613Z,22.8
2018-06-18T13:57:38.590Z,22.8
2018-06-18T13:58:29.251Z,22.8
2018-06-18T13:59:19.574Z,22.8
2018-06-18T14:00:09.081Z,22.8
2018-06-18T14:00:59.698Z,22.8
2018-06-18T14:01:49.558Z,22.8
2018-06-18T14:02:39.277Z,22.8
2018-06-18T14:03:29.107Z,22.8
2018-06-18T14:04:19.125Z,22.8
2018-06-18T14:05:09.645Z,22.8
2018-06-18T14:05:59.598Z,22.8
2018-06-18T14:06:50.115Z,22.8
2018-06-18T14:07:40.237Z,22.8
2018-06-18T14:08:29.767Z,22.8
2018-06-18T14:09:20.102Z,22.8
2018-06-18T14:10:09.821Z,22.8
2018-06-18T14:10:59.879Z,22.8
2018-06-18T14:11:49.971Z,22.8
2018-06-18T14:12:40.264Z,22.8
2018-06-18T14:13:30.072Z,22.8
2018-06-18T14:14:20.801Z,22.8
2018-06-18T14:15:10.469Z,22.8
2018-06-18T14:16:00.599Z,22.8
2018-06-18T14:16:50.911Z,22.8
2018-06-18T14:17:40.411Z,22.8
2018-06-18T14:18:30.465Z,22.8
2018-06-18T14:19:21.071Z,22.8
2018-06-18T14:20:10.914Z,22.8
2018-06-18T14:21:00.713Z,22.8
2018-06-18T14:21:50.425Z,22.8
2018-06-18T14:22:41.313Z,22.8
2018-06-18T14:23:30.296Z,22.8
2018-06-18T14:24:21.493Z,22.8
2018-06-18T14:25:11.009Z,22.8
2018-06-18T14:26:00.789Z,22.8
2018-06-18T14:26:51.367Z,22.8
2018-06-18T14:27:41.686Z,22.8
2018-06-18T14:28:31.867Z,22.8
2018-06-18T14:29:21.606Z,22.8
2018-06-18T14:30:11.636Z,22.8
2018-06-18T14:31:01.400Z,22.8
2018-06-18T14:31:51.803Z,22.8
2018-06-18T14:32:41.157Z,22.8
2018-06-18T14:33:31.868Z,22.8
2018-06-18T14:34:21.954Z,22.8
2018-06-18T14:35:12.084Z,22.8
2018-06-18T14:36:01.570Z,22.8
2018-06-18T14:36:51.685Z,22.8
2018-06-18T14:37:42.544Z,22.8
2018-06-18T14:38:32.599Z,22.8
2018-06-18T14:39:22.436Z,22.8
2018-06-18T14:40:12.962Z,22.8
2018-06-18T14:41:02.230Z,22.8
2018-06-18T14:41:52.588Z,22.8
2018-06-18T14:42:43.573Z,22.8
2018-06-18T14:43:32.413Z,22.8
2018-06-18T14:44:22.735Z,22.8
2018-06-18T14:45:12.928Z,22.8
2018-06-18T14:46:05.257Z,22.8
2018-06-18T14:46:52.936Z,22.8
2018-06-18T14:47:43.928Z,22.8
2018-06-18T14:48:36.676Z,22.8
2018-06-18T14:49:22.884Z,22.8
2018-06-18T14:50:12.949Z,22.8
2018-06-18T14:51:03.547Z,22.8
2018-06-18T14:51:53.330Z,22.8
2018-06-18T14:52:44.745Z,22.8
2018-06-18T14:53:33.444Z,22.8
2018-06-18T14:54:24.777Z,22.8
2018-06-18T14:55:13.850Z,22.8
2018-06-18T14:56:04.410Z,22.8
2018-06-18T14:56:55.133Z,22.8
2018-06-18T14:57:44.036Z,22.8
2018-06-18T14:58:33.528Z,22.8
2018-06-18T14:59:24.382Z,22.8
2018-06-18T15:00:14.003Z,22.8
2018-06-18T15:01:03.474Z,22.8
2018-06-18T15:01:54.398Z,22.8
2018-06-18T15:02:44.646Z,22.8
2018-06-18T15:03:34.220Z,22.8
2018-06-18T15:04:24.357Z,22.8
2018-06-18T15:05:13.822Z,22.8
2018-06-18T15:06:04.465Z,22.8
2018-06-18T15:06:54.191Z,22.8
2018-06-18T15:07:44.502Z,22.8
2018-06-18T15:08:35.585Z,22.8
2018-06-18T15:09:26.372Z,22.8
2018-06-18T15:10:14.864Z,22.8
2018-06-18T15:11:04.765Z,22.8
2018-06-18T15:11:55.187Z,22.8
2018-06-18T15:12:46.300Z,22.8
2018-06-18T15:13:34.988Z,22.8
2018-06-18T15:14:25.032Z,22.8
2018-06-18T15:15:15.411Z,22.8
2018-06-18T15:16:06.543Z,22.8
2018-06-18T15:16:54.974Z,22.8
2018-06-18T15:17:45.290Z,22.8
2018-06-18T15:18:35.130Z,22.8
2018-06-18T15:19:26.254Z,22.8
2018-06-18T15:20:15.262Z,22.8
2018-06-18T15:21:06.067Z,22.8
2018-06-18T15:21:55.619Z,22.8
2018-06-18T15:22:45.399Z,22.8
2018-06-18T15:23:35.730Z,22.8
2018-06-18T15:24:26.064Z,22.8
2018-06-18T15:25:15.587Z,22.8
2018-06-18T15:26:06.854Z,22.8
2018-06-18T15:26:59.137Z,22.8
2018-06-18T15:27:46.083Z,22.8
2018-06-18T15:28:35.655Z,22.8
2018-06-18T15:29:25.729Z,22.8
2018-06-18T15:30:15.783Z,22.8
2018-06-18T15:31:05.617Z,22.8
2018-06-18T15:31:55.657Z,22.8
2018-06-18T15:32:45.682Z,22.8
2018-06-18T15:33:36.277Z,22.7
2018-06-18T15:34:25.971Z,22.7
2018-06-18T15:35:15.467Z,22.7
2018-06-18T15:36:06.046Z,22.7
2018-06-18T15:36:56.587Z,22.7
2018-06-18T15:37:46.079Z,22.7
2018-06-18T15:38:37.307Z,22.6
2018-06-18T15:39:27.009Z,22.6
2018-06-18T15:40:17.319Z,22.6
2018-06-18T15:41:06.276Z,22.5
2018-06-18T15:41:57.208Z,22.5
2018-06-18T15:42:47.501Z,22.4
2018-06-18T15:43:37.243Z,22.4
2018-06-18T15:44:28.782Z,22.4
2018-06-18T15:45:17.147Z,22.3
2018-06-18T15:46:06.892Z,22.3
2018-06-18T15:46:57.232Z,22.3
2018-06-18T15:47:47.587Z,22.2
2018-06-18T15:48:37.692Z,22.2
2018-06-18T15:49:27.763Z,22.2
2018-06-18T15:50:17.813Z,22.1
2018-06-18T15:51:08.110Z,22.1
2018-06-18T15:51:57.358Z,22.2
2018-06-18T15:52:47.692Z,22.1
2018-06-18T15:53:37.490Z,22.2
2018-06-18T15:54:27.529Z,22.1
2018-06-18T15:55:17.309Z,22.2
2018-06-18T15:56:08.243Z,22.2
2018-06-18T15:57:00.238Z,22.2
2018-06-18T15:57:48.385Z,22.2
2018-06-18T15:58:38.143Z,22.2
2018-06-18T15:59:28.237Z,22.2
2018-06-18T16:00:18.798Z,22.2
2018-06-18T16:01:08.050Z,22.2
2018-06-18T16:01:58.945Z,22.3
2018-06-18T16:02:48.161Z,22.3
2018-06-18T16:03:38.810Z,22.3
2018-06-18T16:04:29.169Z,22.3
2018-06-18T16:05:18.409Z,22.3
2018-06-18T16:06:08.407Z,22.3
2018-06-18T16:06:59.306Z,22.3
2018-06-18T16:07:48.371Z,22.3
2018-06-18T16:08:39.148Z,22.3
2018-06-18T16:09:29.236Z,22.3
2018-06-18T16:10:18.459Z,22.3
2018-06-18T16:11:09.403Z,22.3
2018-06-18T16:11:59.401Z,22.3
2018-06-18T16:12:48.906Z,22.3
2018-06-18T16:13:39.567Z,22.3
2018-06-18T16:14:29.691Z,22.3
2018-06-18T16:15:19.412Z,22.2
2018-06-18T16:16:09.162Z,22.2
2018-06-18T16:16:58.961Z,22.2
2018-06-18T16:17:50.522Z,22.2
2018-06-18T16:18:39.351Z,22.2
2018-06-18T16:19:30.009Z,22.2
2018-06-18T16:20:19.508Z,22.2
2018-06-18T16:21:10.150Z,22.2